sensor_id;sensor_type;location;lat;lon;timestamp;P1;durP1;ratioP1;P2;durP2;ratioP2
82304;SDS011;71914;47.382;8.168;2023-12-07T00:01:38;6.78;;;4.30;;
82304;SDS011;71914;47.382;8.168;2023-12-07T00:04:04;6.80;;;3.90;;
82304;SDS011;71914;47.382;8.168;2023-12-07T00:06:30;7.60;;;3.83;;
82304;SDS011;71914;47.382;8.168;2023-12-07T00:08:55;6.00;;;3.65;;
82304;SDS011;71914;47.382;8.168;2023-12-07T00:11:21;6.03;;;3.30;;
82304;SDS011;71914;47.382;8.168;2023-12-07T00:13:49;7.07;;;3.55;;
82304;SDS011;71914;47.382;8.168;2023-12-07T00:16:14;7.50;;;4.28;;
82304;SDS011;71914;47.382;8.168;2023-12-07T00:18:40;6.85;;;3.90;;
82304;SDS011;71914;47.382;8.168;2023-12-07T00:21:07;5.35;;;3.47;;
82304;SDS011;71914;47.382;8.168;2023-12-07T00:23:33;6.93;;;4.05;;
82304;SDS011;71914;47.382;8.168;2023-12-07T00:25:58;6.93;;;3.78;;
82304;SDS011;71914;47.382;8.168;2023-12-07T00:28:24;7.40;;;4.30;;
82304;SDS011;71914;47.382;8.168;2023-12-07T00:30:51;7.10;;;3.83;;
82304;SDS011;71914;47.382;8.168;2023-12-07T00:33:17;7.78;;;4.32;;
82304;SDS011;71914;47.382;8.168;2023-12-07T00:35:42;7.43;;;4.28;;
82304;SDS011;71914;47.382;8.168;2023-12-07T00:38:08;7.28;;;4.32;;
82304;SDS011;71914;47.382;8.168;2023-12-07T00:40:34;7.68;;;4.50;;
82304;SDS011;71914;47.382;8.168;2023-12-07T00:43:02;6.30;;;4.03;;
82304;SDS011;71914;47.382;8.168;2023-12-07T00:45:27;7.72;;;3.90;;
82304;SDS011;71914;47.382;8.168;2023-12-07T00:47:54;10.38;;;4.60;;
82304;SDS011;71914;47.382;8.168;2023-12-07T00:50:20;8.95;;;4.78;;
82304;SDS011;71914;47.382;8.168;2023-12-07T00:52:45;6.55;;;3.88;;
82304;SDS011;71914;47.382;8.168;2023-12-07T00:55:11;7.07;;;3.58;;
82304;SDS011;71914;47.382;8.168;2023-12-07T00:57:36;5.22;;;3.25;;
82304;SDS011;71914;47.382;8.168;2023-12-07T01:00:02;4.72;;;3.05;;
82304;SDS011;71914;47.382;8.168;2023-12-07T01:02:29;6.43;;;3.90;;
82304;SDS011;71914;47.382;8.168;2023-12-07T01:04:56;9.73;;;4.95;;
82304;SDS011;71914;47.382;8.168;2023-12-07T01:07:21;9.02;;;5.00;;
82304;SDS011;71914;47.382;8.168;2023-12-07T01:09:47;10.32;;;4.88;;
82304;SDS011;71914;47.382;8.168;2023-12-07T01:12:13;11.02;;;5.45;;
82304;SDS011;71914;47.382;8.168;2023-12-07T01:14:38;9.00;;;4.82;;
82304;SDS011;71914;47.382;8.168;2023-12-07T01:17:04;9.13;;;4.75;;
82304;SDS011;71914;47.382;8.168;2023-12-07T01:19:30;9.77;;;5.53;;
82304;SDS011;71914;47.382;8.168;2023-12-07T01:21:56;8.15;;;4.78;;
82304;SDS011;71914;47.382;8.168;2023-12-07T01:24:22;8.95;;;4.60;;
82304;SDS011;71914;47.382;8.168;2023-12-07T01:26:48;8.90;;;4.63;;
82304;SDS011;71914;47.382;8.168;2023-12-07T01:29:13;9.13;;;4.72;;
82304;SDS011;71914;47.382;8.168;2023-12-07T01:31:39;10.20;;;5.03;;
82304;SDS011;71914;47.382;8.168;2023-12-07T01:34:05;11.55;;;5.10;;
82304;SDS011;71914;47.382;8.168;2023-12-07T01:36:31;13.32;;;5.20;;
82304;SDS011;71914;47.382;8.168;2023-12-07T01:38:58;17.02;;;6.03;;
82304;SDS011;71914;47.382;8.168;2023-12-07T01:41:24;20.88;;;6.68;;
82304;SDS011;71914;47.382;8.168;2023-12-07T01:43:49;28.75;;;5.55;;
82304;SDS011;71914;47.382;8.168;2023-12-07T01:46:15;19.48;;;5.78;;
82304;SDS011;71914;47.382;8.168;2023-12-07T01:48:41;20.40;;;5.32;;
82304;SDS011;71914;47.382;8.168;2023-12-07T01:51:09;12.18;;;5.47;;
82304;SDS011;71914;47.382;8.168;2023-12-07T01:53:36;19.00;;;5.82;;
82304;SDS011;71914;47.382;8.168;2023-12-07T01:56:05;10.75;;;5.07;;
82304;SDS011;71914;47.382;8.168;2023-12-07T01:58:33;11.40;;;5.22;;
82304;SDS011;71914;47.382;8.168;2023-12-07T02:00:59;7.88;;;4.80;;
82304;SDS011;71914;47.382;8.168;2023-12-07T02:03:26;10.65;;;5.82;;
82304;SDS011;71914;47.382;8.168;2023-12-07T02:05:52;9.40;;;5.32;;
82304;SDS011;71914;47.382;8.168;2023-12-07T02:08:18;11.32;;;4.90;;
82304;SDS011;71914;47.382;8.168;2023-12-07T02:10:44;9.77;;;5.15;;
82304;SDS011;71914;47.382;8.168;2023-12-07T02:13:11;8.48;;;4.88;;
82304;SDS011;71914;47.382;8.168;2023-12-07T02:15:38;9.40;;;5.65;;
82304;SDS011;71914;47.382;8.168;2023-12-07T02:18:05;14.73;;;5.60;;
82304;SDS011;71914;47.382;8.168;2023-12-07T02:20:37;12.20;;;5.57;;
82304;SDS011;71914;47.382;8.168;2023-12-07T02:23:07;18.70;;;5.53;;
82304;SDS011;71914;47.382;8.168;2023-12-07T02:25:35;43.83;;;6.85;;
82304;SDS011;71914;47.382;8.168;2023-12-07T02:28:07;33.80;;;6.10;;
82304;SDS011;71914;47.382;8.168;2023-12-07T02:30:33;32.03;;;4.75;;
82304;SDS011;71914;47.382;8.168;2023-12-07T02:32:59;32.38;;;4.90;;
82304;SDS011;71914;47.382;8.168;2023-12-07T02:35:24;14.30;;;4.72;;
82304;SDS011;71914;47.382;8.168;2023-12-07T02:37:51;31.55;;;5.95;;
82304;SDS011;71914;47.382;8.168;2023-12-07T02:40:20;39.08;;;5.63;;
82304;SDS011;71914;47.382;8.168;2023-12-07T02:42:49;18.30;;;5.25;;
82304;SDS011;71914;47.382;8.168;2023-12-07T02:45:16;28.95;;;5.07;;
82304;SDS011;71914;47.382;8.168;2023-12-07T02:47:42;20.30;;;4.65;;
82304;SDS011;71914;47.382;8.168;2023-12-07T02:50:11;16.25;;;4.28;;
82304;SDS011;71914;47.382;8.168;2023-12-07T02:52:37;25.63;;;5.20;;
82304;SDS011;71914;47.382;8.168;2023-12-07T02:55:03;30.00;;;6.38;;
82304;SDS011;71914;47.382;8.168;2023-12-07T02:57:30;13.32;;;5.13;;
82304;SDS011;71914;47.382;8.168;2023-12-07T02:59:55;19.80;;;5.38;;
82304;SDS011;71914;47.382;8.168;2023-12-07T03:02:23;18.23;;;5.53;;
82304;SDS011;71914;47.382;8.168;2023-12-07T03:04:48;20.83;;;5.03;;
82304;SDS011;71914;47.382;8.168;2023-12-07T03:07:14;20.08;;;6.18;;
82304;SDS011;71914;47.382;8.168;2023-12-07T03:09:39;23.50;;;6.28;;
82304;SDS011;71914;47.382;8.168;2023-12-07T03:12:05;16.67;;;5.43;;
82304;SDS011;71914;47.382;8.168;2023-12-07T03:14:32;15.98;;;5.57;;
82304;SDS011;71914;47.382;8.168;2023-12-07T03:16:58;22.30;;;5.50;;
82304;SDS011;71914;47.382;8.168;2023-12-07T03:19:25;13.48;;;4.13;;
82304;SDS011;71914;47.382;8.168;2023-12-07T03:21:50;10.10;;;3.70;;
82304;SDS011;71914;47.382;8.168;2023-12-07T03:24:16;5.53;;;2.78;;
82304;SDS011;71914;47.382;8.168;2023-12-07T03:26:42;7.53;;;3.00;;
82304;SDS011;71914;47.382;8.168;2023-12-07T03:29:07;17.55;;;5.03;;
82304;SDS011;71914;47.382;8.168;2023-12-07T03:31:33;26.70;;;6.75;;
82304;SDS011;71914;47.382;8.168;2023-12-07T03:33:59;28.27;;;7.95;;
82304;SDS011;71914;47.382;8.168;2023-12-07T03:36:27;21.10;;;6.95;;
82304;SDS011;71914;47.382;8.168;2023-12-07T03:38:53;22.40;;;7.82;;
82304;SDS011;71914;47.382;8.168;2023-12-07T03:41:18;24.92;;;7.00;;
82304;SDS011;71914;47.382;8.168;2023-12-07T03:43:44;18.33;;;6.90;;
82304;SDS011;71914;47.382;8.168;2023-12-07T03:46:10;20.35;;;6.38;;
82304;SDS011;71914;47.382;8.168;2023-12-07T03:48:35;20.83;;;6.47;;
82304;SDS011;71914;47.382;8.168;2023-12-07T03:51:01;19.40;;;6.53;;
82304;SDS011;71914;47.382;8.168;2023-12-07T03:53:28;21.45;;;6.60;;
82304;SDS011;71914;47.382;8.168;2023-12-07T03:55:55;19.50;;;5.82;;
82304;SDS011;71914;47.382;8.168;2023-12-07T03:58:20;20.55;;;6.20;;
82304;SDS011;71914;47.382;8.168;2023-12-07T04:00:46;7.15;;;3.97;;
82304;SDS011;71914;47.382;8.168;2023-12-07T04:03:12;20.30;;;4.72;;
82304;SDS011;71914;47.382;8.168;2023-12-07T04:05:38;16.65;;;6.15;;
82304;SDS011;71914;47.382;8.168;2023-12-07T04:08:04;22.77;;;7.00;;
82304;SDS011;71914;47.382;8.168;2023-12-07T04:10:34;19.00;;;8.05;;
82304;SDS011;71914;47.382;8.168;2023-12-07T04:12:59;36.28;;;9.02;;
82304;SDS011;71914;47.382;8.168;2023-12-07T04:15:25;19.98;;;8.88;;
82304;SDS011;71914;47.382;8.168;2023-12-07T04:17:51;24.17;;;8.75;;
82304;SDS011;71914;47.382;8.168;2023-12-07T04:20:18;19.38;;;7.85;;
82304;SDS011;71914;47.382;8.168;2023-12-07T04:22:43;18.17;;;7.18;;
82304;SDS011;71914;47.382;8.168;2023-12-07T04:25:10;22.23;;;7.32;;
82304;SDS011;71914;47.382;8.168;2023-12-07T04:27:37;26.98;;;8.30;;
82304;SDS011;71914;47.382;8.168;2023-12-07T04:30:03;29.23;;;8.55;;
82304;SDS011;71914;47.382;8.168;2023-12-07T04:32:29;10.93;;;5.45;;
82304;SDS011;71914;47.382;8.168;2023-12-07T04:34:54;6.97;;;5.18;;
82304;SDS011;71914;47.382;8.168;2023-12-07T04:37:20;17.73;;;6.15;;
82304;SDS011;71914;47.382;8.168;2023-12-07T04:39:46;8.43;;;5.43;;
82304;SDS011;71914;47.382;8.168;2023-12-07T04:42:11;22.55;;;8.45;;
82304;SDS011;71914;47.382;8.168;2023-12-07T04:44:38;32.22;;;9.95;;
82304;SDS011;71914;47.382;8.168;2023-12-07T04:47:04;28.65;;;9.63;;
82304;SDS011;71914;47.382;8.168;2023-12-07T04:49:30;37.03;;;10.60;;
82304;SDS011;71914;47.382;8.168;2023-12-07T04:51:56;40.03;;;12.40;;
82304;SDS011;71914;47.382;8.168;2023-12-07T04:54:21;38.75;;;12.00;;
82304;SDS011;71914;47.382;8.168;2023-12-07T04:56:47;40.38;;;13.45;;
82304;SDS011;71914;47.382;8.168;2023-12-07T04:59:13;32.97;;;10.73;;
82304;SDS011;71914;47.382;8.168;2023-12-07T05:01:40;33.95;;;12.02;;
82304;SDS011;71914;47.382;8.168;2023-12-07T05:04:05;12.50;;;6.68;;
82304;SDS011;71914;47.382;8.168;2023-12-07T05:06:31;16.33;;;7.30;;
82304;SDS011;71914;47.382;8.168;2023-12-07T05:08:57;17.08;;;7.68;;
82304;SDS011;71914;47.382;8.168;2023-12-07T05:11:23;17.33;;;7.43;;
82304;SDS011;71914;47.382;8.168;2023-12-07T05:13:49;12.75;;;7.05;;
82304;SDS011;71914;47.382;8.168;2023-12-07T05:16:14;15.30;;;8.90;;
82304;SDS011;71914;47.382;8.168;2023-12-07T05:18:41;9.70;;;7.05;;
82304;SDS011;71914;47.382;8.168;2023-12-07T05:21:07;21.95;;;10.02;;
82304;SDS011;71914;47.382;8.168;2023-12-07T05:23:33;23.58;;;10.60;;
82304;SDS011;71914;47.382;8.168;2023-12-07T05:25:58;57.65;;;14.15;;
82304;SDS011;71914;47.382;8.168;2023-12-07T05:28:24;36.20;;;11.18;;
82304;SDS011;71914;47.382;8.168;2023-12-07T05:30:50;25.70;;;11.77;;
82304;SDS011;71914;47.382;8.168;2023-12-07T05:33:17;60.20;;;17.15;;
82304;SDS011;71914;47.382;8.168;2023-12-07T05:35:45;57.00;;;14.52;;
82304;SDS011;71914;47.382;8.168;2023-12-07T05:38:11;17.50;;;7.40;;
82304;SDS011;71914;47.382;8.168;2023-12-07T05:40:37;25.30;;;10.15;;
82304;SDS011;71914;47.382;8.168;2023-12-07T05:43:02;28.20;;;9.40;;
82304;SDS011;71914;47.382;8.168;2023-12-07T05:45:28;40.78;;;12.55;;
82304;SDS011;71914;47.382;8.168;2023-12-07T05:47:54;38.03;;;13.50;;
82304;SDS011;71914;47.382;8.168;2023-12-07T05:50:20;52.72;;;14.00;;
82304;SDS011;71914;47.382;8.168;2023-12-07T05:52:47;58.33;;;14.32;;
82304;SDS011;71914;47.382;8.168;2023-12-07T05:57:38;43.28;;;12.07;;
82304;SDS011;71914;47.382;8.168;2023-12-07T06:00:04;36.95;;;11.77;;
82304;SDS011;71914;47.382;8.168;2023-12-07T06:02:34;56.35;;;13.68;;
82304;SDS011;71914;47.382;8.168;2023-12-07T06:05:00;56.38;;;14.38;;
82304;SDS011;71914;47.382;8.168;2023-12-07T06:07:25;43.08;;;11.85;;
82304;SDS011;71914;47.382;8.168;2023-12-07T06:09:52;35.10;;;11.68;;
82304;SDS011;71914;47.382;8.168;2023-12-07T06:12:18;21.80;;;8.57;;
82304;SDS011;71914;47.382;8.168;2023-12-07T06:14:43;57.13;;;13.48;;
82304;SDS011;71914;47.382;8.168;2023-12-07T06:17:09;20.48;;;9.43;;
82304;SDS011;71914;47.382;8.168;2023-12-07T06:19:34;14.93;;;5.82;;
82304;SDS011;71914;47.382;8.168;2023-12-07T06:22:00;20.33;;;8.90;;
82304;SDS011;71914;47.382;8.168;2023-12-07T06:24:26;16.77;;;7.43;;
82304;SDS011;71914;47.382;8.168;2023-12-07T06:26:53;18.10;;;9.27;;
82304;SDS011;71914;47.382;8.168;2023-12-07T06:29:18;12.80;;;9.25;;
82304;SDS011;71914;47.382;8.168;2023-12-07T06:31:44;20.48;;;9.63;;
82304;SDS011;71914;47.382;8.168;2023-12-07T06:34:10;19.13;;;9.18;;
82304;SDS011;71914;47.382;8.168;2023-12-07T06:36:35;14.77;;;9.00;;
82304;SDS011;71914;47.382;8.168;2023-12-07T06:39:01;21.05;;;10.57;;
82304;SDS011;71914;47.382;8.168;2023-12-07T06:41:27;13.77;;;8.75;;
82304;SDS011;71914;47.382;8.168;2023-12-07T06:43:54;29.05;;;11.93;;
82304;SDS011;71914;47.382;8.168;2023-12-07T06:46:19;26.98;;;10.77;;
82304;SDS011;71914;47.382;8.168;2023-12-07T06:48:45;37.17;;;14.68;;
82304;SDS011;71914;47.382;8.168;2023-12-07T06:51:10;45.03;;;17.30;;
82304;SDS011;71914;47.382;8.168;2023-12-07T06:53:39;35.53;;;13.30;;
82304;SDS011;71914;47.382;8.168;2023-12-07T06:56:05;18.33;;;9.77;;
82304;SDS011;71914;47.382;8.168;2023-12-07T06:58:31;16.58;;;9.23;;
82304;SDS011;71914;47.382;8.168;2023-12-07T07:00:58;12.13;;;6.32;;
82304;SDS011;71914;47.382;8.168;2023-12-07T07:03:24;21.05;;;8.75;;
82304;SDS011;71914;47.382;8.168;2023-12-07T07:05:50;27.52;;;15.30;;
82304;SDS011;71914;47.382;8.168;2023-12-07T07:08:16;33.15;;;16.05;;
82304;SDS011;71914;47.382;8.168;2023-12-07T07:10:43;10.40;;;6.95;;
82304;SDS011;71914;47.382;8.168;2023-12-07T07:13:10;14.38;;;7.93;;
82304;SDS011;71914;47.382;8.168;2023-12-07T07:15:35;28.85;;;9.55;;
82304;SDS011;71914;47.382;8.168;2023-12-07T07:18:02;34.67;;;11.90;;
82304;SDS011;71914;47.382;8.168;2023-12-07T07:20:28;35.97;;;11.13;;
82304;SDS011;71914;47.382;8.168;2023-12-07T07:22:54;27.70;;;10.60;;
82304;SDS011;71914;47.382;8.168;2023-12-07T07:25:19;16.15;;;7.13;;
82304;SDS011;71914;47.382;8.168;2023-12-07T07:27:45;17.35;;;7.22;;
82304;SDS011;71914;47.382;8.168;2023-12-07T07:30:11;15.40;;;7.13;;
82304;SDS011;71914;47.382;8.168;2023-12-07T07:32:37;11.98;;;7.50;;
82304;SDS011;71914;47.382;8.168;2023-12-07T07:35:05;17.95;;;9.23;;
82304;SDS011;71914;47.382;8.168;2023-12-07T07:37:31;20.23;;;9.32;;
82304;SDS011;71914;47.382;8.168;2023-12-07T07:39:56;21.45;;;9.02;;
82304;SDS011;71914;47.382;8.168;2023-12-07T07:42:22;15.50;;;6.68;;
82304;SDS011;71914;47.382;8.168;2023-12-07T07:44:48;26.35;;;10.00;;
82304;SDS011;71914;47.382;8.168;2023-12-07T07:47:13;33.35;;;12.52;;
82304;SDS011;71914;47.382;8.168;2023-12-07T07:49:39;41.67;;;12.55;;
82304;SDS011;71914;47.382;8.168;2023-12-07T07:52:06;46.63;;;16.33;;
82304;SDS011;71914;47.382;8.168;2023-12-07T07:54:31;37.30;;;14.43;;
82304;SDS011;71914;47.382;8.168;2023-12-07T07:56:57;37.92;;;12.55;;
82304;SDS011;71914;47.382;8.168;2023-12-07T07:59:22;36.75;;;11.32;;
82304;SDS011;71914;47.382;8.168;2023-12-07T08:01:48;35.03;;;11.75;;
82304;SDS011;71914;47.382;8.168;2023-12-07T08:04:14;21.02;;;8.75;;
82304;SDS011;71914;47.382;8.168;2023-12-07T08:06:40;16.63;;;6.20;;
82304;SDS011;71914;47.382;8.168;2023-12-07T08:09:08;20.13;;;7.47;;
82304;SDS011;71914;47.382;8.168;2023-12-07T08:11:34;24.67;;;10.30;;
82304;SDS011;71914;47.382;8.168;2023-12-07T08:14:00;29.50;;;11.90;;
82304;SDS011;71914;47.382;8.168;2023-12-07T08:16:26;19.85;;;8.27;;
82304;SDS011;71914;47.382;8.168;2023-12-07T08:18:52;33.95;;;12.93;;
82304;SDS011;71914;47.382;8.168;2023-12-07T08:21:18;22.15;;;10.20;;
82304;SDS011;71914;47.382;8.168;2023-12-07T08:23:46;28.77;;;10.75;;
82304;SDS011;71914;47.382;8.168;2023-12-07T08:26:13;21.65;;;9.07;;
82304;SDS011;71914;47.382;8.168;2023-12-07T08:28:39;29.73;;;9.60;;
82304;SDS011;71914;47.382;8.168;2023-12-07T08:31:05;16.15;;;6.75;;
82304;SDS011;71914;47.382;8.168;2023-12-07T08:33:31;21.13;;;8.35;;
82304;SDS011;71914;47.382;8.168;2023-12-07T08:35:59;18.92;;;8.32;;
82304;SDS011;71914;47.382;8.168;2023-12-07T08:38:25;13.52;;;7.90;;
82304;SDS011;71914;47.382;8.168;2023-12-07T08:40:50;14.82;;;7.80;;
82304;SDS011;71914;47.382;8.168;2023-12-07T08:43:18;21.42;;;9.07;;
82304;SDS011;71914;47.382;8.168;2023-12-07T08:45:46;26.75;;;12.43;;
82304;SDS011;71914;47.382;8.168;2023-12-07T08:48:11;26.35;;;11.25;;
82304;SDS011;71914;47.382;8.168;2023-12-07T08:50:37;28.83;;;10.73;;
82304;SDS011;71914;47.382;8.168;2023-12-07T08:53:02;32.88;;;11.00;;
82304;SDS011;71914;47.382;8.168;2023-12-07T08:55:28;46.08;;;14.35;;
82304;SDS011;71914;47.382;8.168;2023-12-07T08:57:54;24.92;;;9.10;;
82304;SDS011;71914;47.382;8.168;2023-12-07T09:00:22;27.65;;;10.77;;
82304;SDS011;71914;47.382;8.168;2023-12-07T09:02:50;38.28;;;14.50;;
82304;SDS011;71914;47.382;8.168;2023-12-07T09:05:17;37.75;;;15.90;;
82304;SDS011;71914;47.382;8.168;2023-12-07T09:07:43;45.22;;;17.92;;
82304;SDS011;71914;47.382;8.168;2023-12-07T09:10:09;40.30;;;16.77;;
82304;SDS011;71914;47.382;8.168;2023-12-07T09:12:35;35.03;;;15.05;;
82304;SDS011;71914;47.382;8.168;2023-12-07T09:15:01;35.80;;;17.25;;
82304;SDS011;71914;47.382;8.168;2023-12-07T09:17:29;46.00;;;21.27;;
82304;SDS011;71914;47.382;8.168;2023-12-07T09:19:54;33.00;;;12.40;;
82304;SDS011;71914;47.382;8.168;2023-12-07T09:22:20;37.15;;;15.35;;
82304;SDS011;71914;47.382;8.168;2023-12-07T09:24:46;31.23;;;14.10;;
82304;SDS011;71914;47.382;8.168;2023-12-07T09:27:13;25.35;;;12.65;;
82304;SDS011;71914;47.382;8.168;2023-12-07T09:29:38;33.47;;;16.08;;
82304;SDS011;71914;47.382;8.168;2023-12-07T09:32:04;24.75;;;10.52;;
82304;SDS011;71914;47.382;8.168;2023-12-07T09:34:32;39.08;;;16.65;;
82304;SDS011;71914;47.382;8.168;2023-12-07T09:37:07;29.98;;;12.27;;
82304;SDS011;71914;47.382;8.168;2023-12-07T09:39:33;32.75;;;14.75;;
82304;SDS011;71914;47.382;8.168;2023-12-07T09:41:59;21.05;;;9.27;;
82304;SDS011;71914;47.382;8.168;2023-12-07T09:44:25;14.70;;;9.18;;
82304;SDS011;71914;47.382;8.168;2023-12-07T09:46:51;35.92;;;13.73;;
82304;SDS011;71914;47.382;8.168;2023-12-07T09:49:17;26.92;;;10.32;;
82304;SDS011;71914;47.382;8.168;2023-12-07T09:51:44;18.85;;;9.18;;
82304;SDS011;71914;47.382;8.168;2023-12-07T09:54:11;38.40;;;15.90;;
82304;SDS011;71914;47.382;8.168;2023-12-07T09:56:37;26.63;;;11.48;;
82304;SDS011;71914;47.382;8.168;2023-12-07T09:59:03;21.73;;;10.30;;
82304;SDS011;71914;47.382;8.168;2023-12-07T10:01:29;13.55;;;9.55;;
82304;SDS011;71914;47.382;8.168;2023-12-07T10:06:45;35.65;;;15.00;;
82304;SDS011;71914;47.382;8.168;2023-12-07T10:09:11;21.08;;;9.40;;
82304;SDS011;71914;47.382;8.168;2023-12-07T10:11:37;11.60;;;8.10;;
82304;SDS011;71914;47.382;8.168;2023-12-07T10:14:02;14.45;;;7.53;;
82304;SDS011;71914;47.382;8.168;2023-12-07T10:16:28;25.63;;;11.85;;
82304;SDS011;71914;47.382;8.168;2023-12-07T10:18:54;14.35;;;5.63;;
82304;SDS011;71914;47.382;8.168;2023-12-07T10:21:24;20.88;;;9.68;;
82304;SDS011;71914;47.382;8.168;2023-12-07T10:23:59;8.98;;;4.18;;
82304;SDS011;71914;47.382;8.168;2023-12-07T10:26:25;14.35;;;6.38;;
82304;SDS011;71914;47.382;8.168;2023-12-07T10:28:51;8.43;;;5.55;;
82304;SDS011;71914;47.382;8.168;2023-12-07T10:31:19;13.13;;;5.90;;
82304;SDS011;71914;47.382;8.168;2023-12-07T10:33:47;13.50;;;6.30;;
82304;SDS011;71914;47.382;8.168;2023-12-07T10:36:12;18.88;;;8.68;;
82304;SDS011;71914;47.382;8.168;2023-12-07T10:38:38;19.70;;;9.93;;
82304;SDS011;71914;47.382;8.168;2023-12-07T10:41:08;17.48;;;6.57;;
82304;SDS011;71914;47.382;8.168;2023-12-07T10:43:37;11.95;;;5.70;;
82304;SDS011;71914;47.382;8.168;2023-12-07T10:46:07;29.98;;;15.75;;
82304;SDS011;71914;47.382;8.168;2023-12-07T10:51:00;21.30;;;9.63;;
82304;SDS011;71914;47.382;8.168;2023-12-07T10:53:34;25.45;;;13.20;;
82304;SDS011;71914;47.382;8.168;2023-12-07T10:56:10;9.80;;;6.00;;
82304;SDS011;71914;47.382;8.168;2023-12-07T10:58:39;9.93;;;6.45;;
82304;SDS011;71914;47.382;8.168;2023-12-07T11:01:07;19.52;;;9.75;;
82304;SDS011;71914;47.382;8.168;2023-12-07T11:03:34;27.33;;;14.27;;
82304;SDS011;71914;47.382;8.168;2023-12-07T11:06:02;16.20;;;7.47;;
82304;SDS011;71914;47.382;8.168;2023-12-07T11:08:31;13.50;;;6.95;;
82304;SDS011;71914;47.382;8.168;2023-12-07T11:11:05;15.32;;;8.75;;
82304;SDS011;71914;47.382;8.168;2023-12-07T11:13:36;19.13;;;10.10;;
82304;SDS011;71914;47.382;8.168;2023-12-07T11:16:03;16.45;;;9.30;;
82304;SDS011;71914;47.382;8.168;2023-12-07T11:18:29;17.42;;;9.82;;
82304;SDS011;71914;47.382;8.168;2023-12-07T11:20:54;16.50;;;8.13;;
82304;SDS011;71914;47.382;8.168;2023-12-07T11:23:21;12.38;;;6.70;;
82304;SDS011;71914;47.382;8.168;2023-12-07T11:25:47;10.45;;;4.82;;
82304;SDS011;71914;47.382;8.168;2023-12-07T11:28:15;12.88;;;6.72;;
82304;SDS011;71914;47.382;8.168;2023-12-07T11:30:44;7.70;;;4.30;;
82304;SDS011;71914;47.382;8.168;2023-12-07T11:33:10;11.80;;;5.25;;
82304;SDS011;71914;47.382;8.168;2023-12-07T11:38:31;6.63;;;4.22;;
82304;SDS011;71914;47.382;8.168;2023-12-07T11:40:56;9.38;;;5.00;;
82304;SDS011;71914;47.382;8.168;2023-12-07T11:43:30;8.05;;;4.28;;
82304;SDS011;71914;47.382;8.168;2023-12-07T11:46:12;6.32;;;4.00;;
82304;SDS011;71914;47.382;8.168;2023-12-07T11:48:39;8.70;;;5.53;;
82304;SDS011;71914;47.382;8.168;2023-12-07T11:51:05;6.13;;;2.78;;
82304;SDS011;71914;47.382;8.168;2023-12-07T11:53:33;10.27;;;5.20;;
82304;SDS011;71914;47.382;8.168;2023-12-07T11:58:25;9.82;;;4.72;;
82304;SDS011;71914;47.382;8.168;2023-12-07T12:00:52;11.35;;;5.95;;
82304;SDS011;71914;47.382;8.168;2023-12-07T12:03:23;13.52;;;5.15;;
82304;SDS011;71914;47.382;8.168;2023-12-07T12:05:49;11.75;;;6.03;;
82304;SDS011;71914;47.382;8.168;2023-12-07T12:08:15;6.15;;;3.78;;
82304;SDS011;71914;47.382;8.168;2023-12-07T12:10:41;7.47;;;4.45;;
82304;SDS011;71914;47.382;8.168;2023-12-07T12:13:09;8.10;;;4.80;;
82304;SDS011;71914;47.382;8.168;2023-12-07T12:15:36;12.57;;;6.88;;
82304;SDS011;71914;47.382;8.168;2023-12-07T12:18:02;12.48;;;6.43;;
82304;SDS011;71914;47.382;8.168;2023-12-07T12:20:30;7.05;;;3.88;;
82304;SDS011;71914;47.382;8.168;2023-12-07T12:22:56;10.85;;;4.63;;
82304;SDS011;71914;47.382;8.168;2023-12-07T12:25:23;8.68;;;5.22;;
82304;SDS011;71914;47.382;8.168;2023-12-07T12:27:53;4.97;;;3.15;;
82304;SDS011;71914;47.382;8.168;2023-12-07T12:30:20;11.88;;;5.05;;
82304;SDS011;71914;47.382;8.168;2023-12-07T12:32:48;6.40;;;3.75;;
82304;SDS011;71914;47.382;8.168;2023-12-07T12:35:14;8.18;;;4.82;;
82304;SDS011;71914;47.382;8.168;2023-12-07T12:37:41;7.55;;;4.70;;
82304;SDS011;71914;47.382;8.168;2023-12-07T12:40:08;8.30;;;4.28;;
82304;SDS011;71914;47.382;8.168;2023-12-07T12:42:35;11.02;;;6.45;;
82304;SDS011;71914;47.382;8.168;2023-12-07T12:45:04;4.32;;;2.90;;
82304;SDS011;71914;47.382;8.168;2023-12-07T12:47:30;7.97;;;3.88;;
82304;SDS011;71914;47.382;8.168;2023-12-07T12:49:58;8.07;;;5.10;;
82304;SDS011;71914;47.382;8.168;2023-12-07T12:52:24;7.57;;;4.22;;
82304;SDS011;71914;47.382;8.168;2023-12-07T12:54:56;10.18;;;4.47;;
82304;SDS011;71914;47.382;8.168;2023-12-07T12:57:22;7.22;;;4.00;;
82304;SDS011;71914;47.382;8.168;2023-12-07T12:59:48;9.38;;;4.85;;
82304;SDS011;71914;47.382;8.168;2023-12-07T13:02:15;6.85;;;3.40;;
82304;SDS011;71914;47.382;8.168;2023-12-07T13:04:40;7.47;;;4.13;;
82304;SDS011;71914;47.382;8.168;2023-12-07T13:07:06;7.50;;;4.55;;
82304;SDS011;71914;47.382;8.168;2023-12-07T13:09:32;8.93;;;5.15;;
82304;SDS011;71914;47.382;8.168;2023-12-07T13:11:59;7.28;;;4.38;;
82304;SDS011;71914;47.382;8.168;2023-12-07T13:14:25;10.98;;;4.75;;
82304;SDS011;71914;47.382;8.168;2023-12-07T13:16:50;10.18;;;5.25;;
82304;SDS011;71914;47.382;8.168;2023-12-07T13:19:17;8.85;;;4.10;;
82304;SDS011;71914;47.382;8.168;2023-12-07T13:21:45;7.28;;;3.35;;
82304;SDS011;71914;47.382;8.168;2023-12-07T13:24:10;9.25;;;3.55;;
82304;SDS011;71914;47.382;8.168;2023-12-07T13:26:37;11.23;;;5.72;;
82304;SDS011;71914;47.382;8.168;2023-12-07T13:29:04;7.10;;;4.35;;
82304;SDS011;71914;47.382;8.168;2023-12-07T13:31:30;10.52;;;4.00;;
82304;SDS011;71914;47.382;8.168;2023-12-07T13:33:55;14.35;;;6.10;;
82304;SDS011;71914;47.382;8.168;2023-12-07T13:36:21;7.75;;;4.50;;
82304;SDS011;71914;47.382;8.168;2023-12-07T13:38:49;11.00;;;7.22;;
82304;SDS011;71914;47.382;8.168;2023-12-07T13:41:14;6.20;;;3.63;;
82304;SDS011;71914;47.382;8.168;2023-12-07T13:43:41;12.10;;;5.65;;
82304;SDS011;71914;47.382;8.168;2023-12-07T13:46:08;8.75;;;5.22;;
82304;SDS011;71914;47.382;8.168;2023-12-07T13:48:35;9.45;;;4.63;;
82304;SDS011;71914;47.382;8.168;2023-12-07T13:51:01;8.07;;;4.97;;
82304;SDS011;71914;47.382;8.168;2023-12-07T13:53:27;10.48;;;4.63;;
82304;SDS011;71914;47.382;8.168;2023-12-07T13:55:53;7.57;;;4.35;;
82304;SDS011;71914;47.382;8.168;2023-12-07T13:58:18;8.65;;;4.60;;
82304;SDS011;71914;47.382;8.168;2023-12-07T14:00:45;11.07;;;4.97;;
82304;SDS011;71914;47.382;8.168;2023-12-07T14:03:12;17.90;;;7.35;;
82304;SDS011;71914;47.382;8.168;2023-12-07T14:05:38;11.13;;;5.57;;
82304;SDS011;71914;47.382;8.168;2023-12-07T14:08:06;9.88;;;5.80;;
82304;SDS011;71914;47.382;8.168;2023-12-07T14:10:32;15.70;;;7.38;;
82304;SDS011;71914;47.382;8.168;2023-12-07T14:12:59;17.90;;;7.05;;
82304;SDS011;71914;47.382;8.168;2023-12-07T14:15:25;38.08;;;15.68;;
82304;SDS011;71914;47.382;8.168;2023-12-07T14:17:51;19.70;;;10.18;;
82304;SDS011;71914;47.382;8.168;2023-12-07T14:20:18;27.40;;;11.60;;
82304;SDS011;71914;47.382;8.168;2023-12-07T14:22:46;18.00;;;7.82;;
82304;SDS011;71914;47.382;8.168;2023-12-07T14:25:11;14.70;;;5.93;;
82304;SDS011;71914;47.382;8.168;2023-12-07T14:27:37;7.15;;;4.15;;
82304;SDS011;71914;47.382;8.168;2023-12-07T14:30:03;8.05;;;4.15;;
82304;SDS011;71914;47.382;8.168;2023-12-07T14:32:29;4.97;;;3.92;;
82304;SDS011;71914;47.382;8.168;2023-12-07T14:34:55;7.05;;;3.72;;
82304;SDS011;71914;47.382;8.168;2023-12-07T14:37:22;10.93;;;5.75;;
82304;SDS011;71914;47.382;8.168;2023-12-07T14:39:47;6.55;;;4.10;;
82304;SDS011;71914;47.382;8.168;2023-12-07T14:42:13;6.88;;;3.65;;
82304;SDS011;71914;47.382;8.168;2023-12-07T14:44:39;11.23;;;5.03;;